F/V Argentario — FGPE — position and weather

sailwx.info

Track history (hours):
 
Tides and Currents Weather Stations Pressure Air Temp Water Temp Dewpoint Dewpoint Depression Visibility Wind Speed Wind Dir Waves Ship Positions

F/V Argentario

Last reported at 2016-Aug-28 03:17 UTC. Time now 2016-Aug-29 03:45 UTC.
Position N 45°56' W 003°04'.

Length 22 m; draft 3.4 m.

Type: Fishing. MMSI: 228975000.

Date/timePositionNaut miles runAvg speedWind from/ knotsBaromVisibWave heightAir tempDewpointWater temp
2016-Aug-28 03:17N 45°56' W 003°04'0 0.6
2016-Aug-28 02:32N 45°57' W 003°04'0 0.0
2016-Aug-28 00:33N 45°57' W 003°04'0 0.0
2016-Aug-27 23:34N 45°57' W 003°04'0 0.0
2016-Aug-27 22:33N 45°57' W 003°04'0 0.0
2016-Aug-27 21:33N 45°57' W 003°04'0 0.0
2016-Aug-27 20:33N 45°57' W 003°04'0 0.0
2016-Aug-27 19:32N 45°57' W 003°04'0 0.1
2016-Aug-27 18:28N 45°57' W 003°04'0 0.1
2016-Aug-27 17:33N 45°57' W 003°04'61 6.6
2016-Aug-27 08:25N 45°23' W 001°52'1 0.6
2016-Aug-27 06:33N 45°24' W 001°51'1 0.5
2016-Aug-27 04:33N 45°24' W 001°50'0 0.0
2016-Aug-27 03:33N 45°23' W 001°50'0 0.0
2016-Aug-27 02:33N 45°23' W 001°50'0 0.0
2016-Aug-27 01:33N 45°23' W 001°50'0 0.0
2016-Aug-27 00:31N 45°23' W 001°50'0 0.1
2016-Aug-26 23:33N 45°23' W 001°50'0 0.1
2016-Aug-26 22:33N 45°23' W 001°50'0 0.0
2016-Aug-26 21:33N 45°23' W 001°49'0 0.0
2016-Aug-26 18:03N 45°24' W 001°49'0 0.0
2016-Aug-26 17:20N 45°24' W 001°49'22 1.2
2016-Aug-25 23:26N 45°27' W 002°20'0 0.0
2016-Aug-25 14:10N 45°27' W 002°20'0 0.1
2016-Aug-25 13:26N 45°27' W 002°20'0 0.0
2016-Aug-25 12:15N 45°27' W 002°20'1 0.1
2016-Aug-25 02:32N 45°28' W 002°21'0 0.2
2016-Aug-25 01:33N 45°28' W 002°22'0 0.1
2016-Aug-25 00:33N 45°28' W 002°22'0 0.1
2016-Aug-24 23:33N 45°28' W 002°21'0 0.0
2016-Aug-24 21:30N 45°28' W 002°21'0 0.0
2016-Aug-24 18:33N 45°28' W 002°21'0 0.0
2016-Aug-24 17:33N 45°28' W 002°21'0 0.1
2016-Aug-24 16:33N 45°28' W 002°21'2 2.1
2016-Aug-24 15:33N 45°29' W 002°24'11 4.6
2016-Aug-24 13:12N 45°37' W 002°13'0 0.4
2016-Aug-24 12:26N 45°37' W 002°13'0 0.3
2016-Aug-24 11:09N 45°37' W 002°13'0 0.2
2016-Aug-24 10:33N 45°36' W 002°13'1 0.7
2016-Aug-24 09:33N 45°36' W 002°13'1 1.1
2016-Aug-24 08:16N 45°37' W 002°12'1 0.6
2016-Aug-24 07:24N 45°36' W 002°12'1 1.3
2016-Aug-24 06:33N 45°35' W 002°11'1 0.6
2016-Aug-24 04:22N 45°37' W 002°11'0 0.0
2016-Aug-24 03:33N 45°37' W 002°12'0 0.1
2016-Aug-24 02:33N 45°37' W 002°12'0 0.1
2016-Aug-24 01:33N 45°37' W 002°12'0 0.1
2016-Aug-24 00:33N 45°37' W 002°12'0 0.0
2016-Aug-23 23:33N 45°37' W 002°12'0 0.1
2016-Aug-23 22:33N 45°37' W 002°12'0 0.0
2016-Aug-23 21:33N 45°37' W 002°12'0 0.0
2016-Aug-23 20:33N 45°37' W 002°11'0 0.0
2016-Aug-23 19:33N 45°37' W 002°11'0 0.2
2016-Aug-23 18:33N 45°37' W 002°11'1 1.4
2016-Aug-23 17:34N 45°38' W 002°12'42 6.8
2016-Aug-23 11:17N 46°20' W 002°18'6 8.4
2016-Aug-23 10:33N 46°26' W 002°17'8 8.3
2016-Aug-23 09:33N 46°35' W 002°16'9 8.0
2016-Aug-23 08:28N 46°43' W 002°18'2 2.0
2016-Aug-23 07:32N 46°44' W 002°21'0 0.1
2016-Aug-23 06:33N 46°44' W 002°21'  
Track history (hours):
 
Tides and Currents Weather Stations Pressure Air Temp Water Temp Dewpoint Dewpoint Depression Visibility Wind Speed Wind Dir Waves Ship Positions

F/V Argentario

Last reported at 2016-Aug-28 03:17 UTC. Time now 2016-Aug-29 03:45 UTC.
Position N 45°56' W 003°04'.

Length 22 m; draft 3.4 m.

Type: Fishing. MMSI: 228975000.

Date/timePositionNaut miles runAvg speedWind from/ knotsBaromVisibWave heightAir tempDewpointWater temp
2016-Aug-28 03:17N 45°56' W 003°04'0 0.6
2016-Aug-28 02:32N 45°57' W 003°04'0 0.0
2016-Aug-28 00:33N 45°57' W 003°04'0 0.0
2016-Aug-27 23:34N 45°57' W 003°04'0 0.0
2016-Aug-27 22:33N 45°57' W 003°04'0 0.0
2016-Aug-27 21:33N 45°57' W 003°04'0 0.0
2016-Aug-27 20:33N 45°57' W 003°04'0 0.0
2016-Aug-27 19:32N 45°57' W 003°04'0 0.1
2016-Aug-27 18:28N 45°57' W 003°04'0 0.1
2016-Aug-27 17:33N 45°57' W 003°04'61 6.6
2016-Aug-27 08:25N 45°23' W 001°52'1 0.6
2016-Aug-27 06:33N 45°24' W 001°51'1 0.5
2016-Aug-27 04:33N 45°24' W 001°50'0 0.0
2016-Aug-27 03:33N 45°23' W 001°50'0 0.0
2016-Aug-27 02:33N 45°23' W 001°50'0 0.0
2016-Aug-27 01:33N 45°23' W 001°50'0 0.0
2016-Aug-27 00:31N 45°23' W 001°50'0 0.1
2016-Aug-26 23:33N 45°23' W 001°50'0 0.1
2016-Aug-26 22:33N 45°23' W 001°50'0 0.0
2016-Aug-26 21:33N 45°23' W 001°49'0 0.0
2016-Aug-26 18:03N 45°24' W 001°49'0 0.0
2016-Aug-26 17:20N 45°24' W 001°49'22 1.2
2016-Aug-25 23:26N 45°27' W 002°20'0 0.0
2016-Aug-25 14:10N 45°27' W 002°20'0 0.1
2016-Aug-25 13:26N 45°27' W 002°20'0 0.0
2016-Aug-25 12:15N 45°27' W 002°20'1 0.1
2016-Aug-25 02:32N 45°28' W 002°21'0 0.2
2016-Aug-25 01:33N 45°28' W 002°22'0 0.1
2016-Aug-25 00:33N 45°28' W 002°22'0 0.1
2016-Aug-24 23:33N 45°28' W 002°21'0 0.0
2016-Aug-24 21:30N 45°28' W 002°21'0 0.0
2016-Aug-24 18:33N 45°28' W 002°21'0 0.0
2016-Aug-24 17:33N 45°28' W 002°21'0 0.1
2016-Aug-24 16:33N 45°28' W 002°21'2 2.1
2016-Aug-24 15:33N 45°29' W 002°24'11 4.6
2016-Aug-24 13:12N 45°37' W 002°13'0 0.4
2016-Aug-24 12:26N 45°37' W 002°13'0 0.3
2016-Aug-24 11:09N 45°37' W 002°13'0 0.2
2016-Aug-24 10:33N 45°36' W 002°13'1 0.7
2016-Aug-24 09:33N 45°36' W 002°13'1 1.1
2016-Aug-24 08:16N 45°37' W 002°12'1 0.6
2016-Aug-24 07:24N 45°36' W 002°12'1 1.3
2016-Aug-24 06:33N 45°35' W 002°11'1 0.6
2016-Aug-24 04:22N 45°37' W 002°11'0 0.0
2016-Aug-24 03:33N 45°37' W 002°12'0 0.1
2016-Aug-24 02:33N 45°37' W 002°12'0 0.1
2016-Aug-24 01:33N 45°37' W 002°12'0 0.1
2016-Aug-24 00:33N 45°37' W 002°12'0 0.0
2016-Aug-23 23:33N 45°37' W 002°12'0 0.1
2016-Aug-23 22:33N 45°37' W 002°12'0 0.0
2016-Aug-23 21:33N 45°37' W 002°12'0 0.0
2016-Aug-23 20:33N 45°37' W 002°11'0 0.0
2016-Aug-23 19:33N 45°37' W 002°11'0 0.2
2016-Aug-23 18:33N 45°37' W 002°11'1 1.4
2016-Aug-23 17:34N 45°38' W 002°12'42 6.8
2016-Aug-23 11:17N 46°20' W 002°18'6 8.4
2016-Aug-23 10:33N 46°26' W 002°17'8 8.3
2016-Aug-23 09:33N 46°35' W 002°16'9 8.0
2016-Aug-23 08:28N 46°43' W 002°18'2 2.0
2016-Aug-23 07:32N 46°44' W 002°21'0 0.1
2016-Aug-23 06:33N 46°44' W 002°21'  

Dump ship's entire track history